createdAt,value
2018-12-07T00:00:20.571Z,85.46
2018-12-07T00:02:52.315Z,85.80
2018-12-07T00:05:22.971Z,85.81
2018-12-07T00:07:53.535Z,86.11
2018-12-07T00:10:24.794Z,85.54
2018-12-07T00:12:55.802Z,85.64
2018-12-07T00:15:26.403Z,85.53
2018-12-07T00:17:56.962Z,86.01
2018-12-07T00:20:27.555Z,85.68
2018-12-07T00:22:58.179Z,85.79
2018-12-07T00:25:28.810Z,85.64
2018-12-07T00:27:59.835Z,85.51
2018-12-07T00:30:30.446Z,85.48
2018-12-07T00:33:01.058Z,86.01
2018-12-07T00:35:31.740Z,86.18
2018-12-07T00:38:02.859Z,86.13
2018-12-07T00:40:33.518Z,85.79
2018-12-07T00:43:04.141Z,86.09
2018-12-07T00:45:34.758Z,86.28
2018-12-07T00:48:06.946Z,86.07
2018-12-07T00:50:37.574Z,85.95
2018-12-07T00:53:08.579Z,85.88
2018-12-07T00:55:41.369Z,85.98
2018-12-07T00:58:11.948Z,85.72
2018-12-07T01:00:42.850Z,85.75
2018-12-07T01:03:13.425Z,86.23
2018-12-07T01:05:44.020Z,86.13
2018-12-07T01:08:14.600Z,86.47
2018-12-07T01:10:45.200Z,86.36
2018-12-07T01:13:15.768Z,86.09
2018-12-07T01:15:46.385Z,86.39
2018-12-07T01:18:18.051Z,86.32
2018-12-07T01:20:49.321Z,86.65
2018-12-07T01:23:19.926Z,86.45
2018-12-07T01:25:50.762Z,86.62
2018-12-07T01:28:22.460Z,86.55
2018-12-07T01:30:53.001Z,86.83
2018-12-07T01:33:24.586Z,86.93
2018-12-07T01:35:55.174Z,87.04
2018-12-07T01:38:25.794Z,86.76
2018-12-07T01:40:56.385Z,86.63
2018-12-07T01:43:27.091Z,86.49
2018-12-07T01:45:57.662Z,86.51
2018-12-07T01:48:28.281Z,86.76
2018-12-07T01:50:58.868Z,86.60
2018-12-07T01:53:29.462Z,86.47
2018-12-07T01:56:00.067Z,86.71
2018-12-07T01:58:30.658Z,86.77
2018-12-07T02:01:01.273Z,86.83
2018-12-07T02:03:33.011Z,86.42
2018-12-07T02:06:03.939Z,86.79
2018-12-07T02:08:34.518Z,86.79
2018-12-07T02:11:05.097Z,86.50
2018-12-07T02:13:36.762Z,86.94
2018-12-07T02:16:08.570Z,87.01
2018-12-07T02:18:39.165Z,86.64
2018-12-07T02:21:09.762Z,86.69
2018-12-07T02:23:40.326Z,86.48
2018-12-07T02:26:10.978Z,87.12
2018-12-07T02:28:42.420Z,86.67
2018-12-07T02:31:13.035Z,86.92
2018-12-07T02:33:43.602Z,87.06
2018-12-07T02:36:14.202Z,86.85
2018-12-07T02:38:44.769Z,86.92
2018-12-07T02:41:15.618Z,86.92
2018-12-07T02:43:46.231Z,86.97
2018-12-07T02:46:16.837Z,86.65
2018-12-07T02:48:48.474Z,86.55
2018-12-07T02:51:19.694Z,86.79
2018-12-07T02:53:51.684Z,86.45
2018-12-07T02:56:22.333Z,86.49
2018-12-07T02:58:53.135Z,86.33
2018-12-07T03:01:23.718Z,86.58
2018-12-07T03:03:54.381Z,86.14
2018-12-07T03:06:24.918Z,86.34
2018-12-07T03:08:55.507Z,86.44
2018-12-07T03:11:26.075Z,86.24
2018-12-07T03:13:56.655Z,86.25
2018-12-07T03:16:27.229Z,86.50
2018-12-07T03:18:57.823Z,86.60
2018-12-07T03:21:28.387Z,86.45
2018-12-07T03:23:58.995Z,86.52
2018-12-07T03:26:29.599Z,86.75
2018-12-07T03:29:00.182Z,86.41
2018-12-07T03:31:30.907Z,86.07
2018-12-07T03:34:02.507Z,86.03
2018-12-07T03:36:33.510Z,85.98
2018-12-07T03:39:06.836Z,86.03
2018-12-07T03:41:38.945Z,86.22
2018-12-07T03:44:09.550Z,86.12
2018-12-07T03:46:40.110Z,86.04
2018-12-07T03:49:10.721Z,86.10
2018-12-07T03:51:43.593Z,86.41
2018-12-07T03:54:14.456Z,86.38
2018-12-07T03:56:45.304Z,86.32
2018-12-07T03:59:16.325Z,86.19
2018-12-07T04:01:47.171Z,86.14
2018-12-07T04:04:17.767Z,86.32
2018-12-07T04:06:50.091Z,86.33
2018-12-07T04:09:21.206Z,86.07
2018-12-07T04:11:52.647Z,86.02
2018-12-07T04:14:23.219Z,85.74
2018-12-07T04:16:53.940Z,85.85
2018-12-07T04:19:24.767Z,85.15
2018-12-07T04:21:55.438Z,84.94
2018-12-07T04:24:26.025Z,85.19
2018-12-07T04:26:56.865Z,85.12
2018-12-07T04:29:27.444Z,85.06
2018-12-07T04:31:58.303Z,84.70
2018-12-07T04:34:28.872Z,84.91
2018-12-07T04:36:59.474Z,85.02
2018-12-07T04:39:30.055Z,84.86
2018-12-07T04:42:00.769Z,85.21
2018-12-07T04:44:31.594Z,84.86
2018-12-07T04:47:02.488Z,84.91
2018-12-07T04:49:33.065Z,85.00
2018-12-07T04:52:04.573Z,84.65
2018-12-07T04:54:35.163Z,84.57
2018-12-07T04:57:05.758Z,84.25
2018-12-07T04:59:36.677Z,84.05
2018-12-07T05:02:07.288Z,84.22
2018-12-07T05:04:38.568Z,84.34
2018-12-07T05:07:09.157Z,83.87
2018-12-07T05:09:39.741Z,84.02
2018-12-07T05:12:10.622Z,83.89
2018-12-07T05:14:41.236Z,84.25
2018-12-07T05:17:11.821Z,84.02
2018-12-07T05:19:42.423Z,83.66
2018-12-07T05:22:13.020Z,84.49
2018-12-07T05:24:44.810Z,84.59
2018-12-07T05:27:15.645Z,84.54
2018-12-07T05:32:32.877Z,85.18
2018-12-07T05:35:04.122Z,85.59
2018-12-07T05:37:34.707Z,85.74
2018-12-07T05:40:07.132Z,85.59
2018-12-07T05:42:38.770Z,85.39
2018-12-07T05:45:09.940Z,85.48
2018-12-07T05:47:40.634Z,85.36
2018-12-07T05:50:11.694Z,85.41
2018-12-07T05:52:42.254Z,85.26
2018-12-07T05:55:12.854Z,85.38
2018-12-07T05:57:43.659Z,85.19
2018-12-07T06:00:15.192Z,85.43
2018-12-07T06:02:46.281Z,85.33
2018-12-07T06:05:17.494Z,85.40
2018-12-07T06:07:48.675Z,84.87
2018-12-07T06:10:20.238Z,84.83
2018-12-07T06:12:51.074Z,84.73
2018-12-07T06:15:21.645Z,85.01
2018-12-07T06:17:52.690Z,84.75
2018-12-07T06:20:23.213Z,84.58
2018-12-07T06:22:55.151Z,84.66
2018-12-07T06:25:25.714Z,84.34
2018-12-07T06:27:56.323Z,84.42
2018-12-07T06:30:26.905Z,84.39
2018-12-07T06:32:58.281Z,84.04
2018-12-07T06:35:29.670Z,84.59
2018-12-07T06:38:01.055Z,84.51
2018-12-07T06:40:31.666Z,84.57
2018-12-07T06:43:02.930Z,84.29
2018-12-07T06:45:35.121Z,84.42
2018-12-07T06:48:06.335Z,84.48
2018-12-07T06:50:37.180Z,84.43
2018-12-07T06:53:08.008Z,84.40
2018-12-07T06:55:38.634Z,84.21
2018-12-07T06:58:09.261Z,84.41
2018-12-07T07:00:39.910Z,84.17
2018-12-07T07:03:11.024Z,84.56
2018-12-07T07:05:41.671Z,84.61
2018-12-07T07:08:12.255Z,84.31
2018-12-07T07:10:42.958Z,84.70
2018-12-07T07:13:13.672Z,84.56
2018-12-07T07:15:44.530Z,84.75
2018-12-07T07:18:15.130Z,84.51
2018-12-07T07:20:45.778Z,84.32
2018-12-07T07:23:16.827Z,84.50
2018-12-07T07:25:47.434Z,84.46
2018-12-07T07:28:18.022Z,84.06
2018-12-07T07:30:49.501Z,84.01
2018-12-07T07:33:20.094Z,84.04
2018-12-07T07:35:51.700Z,84.66
2018-12-07T07:38:23.281Z,83.87
2018-12-07T07:40:54.176Z,84.43
2018-12-07T07:43:24.858Z,84.37
2018-12-07T07:45:55.460Z,83.86
2018-12-07T07:48:26.122Z,83.58
2018-12-07T07:50:56.893Z,83.35
2018-12-07T07:53:28.379Z,83.25
2018-12-07T07:55:59.393Z,82.61
2018-12-07T07:58:29.992Z,83.35
2018-12-07T08:01:00.558Z,83.54
2018-12-07T08:03:31.286Z,83.53
2018-12-07T08:06:02.322Z,83.61
2018-12-07T08:08:33.019Z,83.58
2018-12-07T08:11:03.620Z,84.02
2018-12-07T08:13:34.234Z,83.84
2018-12-07T08:16:05.042Z,83.73
2018-12-07T08:18:35.702Z,83.57
2018-12-07T08:21:06.766Z,83.78
2018-12-07T08:23:39.907Z,83.98
2018-12-07T08:26:10.507Z,83.27
2018-12-07T08:28:41.645Z,83.14
2018-12-07T08:31:12.230Z,83.02
2018-12-07T08:33:42.849Z,82.74
2018-12-07T08:36:13.446Z,82.65
2018-12-07T08:38:44.026Z,82.83
2018-12-07T08:41:14.612Z,82.32
2018-12-07T08:43:45.618Z,82.25
2018-12-07T08:46:16.194Z,82.02
2018-12-07T08:48:46.858Z,82.35
2018-12-07T08:51:17.474Z,81.63
2018-12-07T08:53:48.739Z,81.59
2018-12-07T08:56:19.358Z,80.90
2018-12-07T08:58:50.885Z,80.67
2018-12-07T09:01:22.462Z,80.90
2018-12-07T09:03:53.286Z,80.07
2018-12-07T09:06:24.322Z,80.10
2018-12-07T09:08:54.992Z,79.90
2018-12-07T09:11:27.330Z,78.85
2018-12-07T09:13:58.668Z,78.85
2018-12-07T09:16:29.954Z,77.49
2018-12-07T09:19:00.530Z,78.27
2018-12-07T09:21:31.358Z,77.03
2018-12-07T09:24:02.860Z,76.62
2018-12-07T09:26:34.445Z,77.42
2018-12-07T09:29:05.907Z,76.14
2018-12-07T09:31:36.847Z,75.24
2018-12-07T09:34:07.595Z,76.39
2018-12-07T09:36:38.334Z,76.58
2018-12-07T09:39:11.224Z,74.80
2018-12-07T09:41:41.794Z,75.11
2018-12-07T09:44:12.398Z,75.91
2018-12-07T09:46:43.448Z,75.94
2018-12-07T09:49:20.797Z,73.85
2018-12-07T09:51:51.479Z,75.40
2018-12-07T09:54:22.134Z,75.26
2018-12-07T09:56:53.402Z,74.76
2018-12-07T09:59:24.026Z,73.66
2018-12-07T10:01:55.786Z,74.61
2018-12-07T10:04:26.358Z,73.88
2018-12-07T10:06:56.990Z,74.91
2018-12-07T10:09:27.831Z,74.85
2018-12-07T10:11:58.757Z,75.23
2018-12-07T10:14:30.164Z,75.02
2018-12-07T10:17:00.785Z,73.92
2018-12-07T10:19:31.380Z,73.73
2018-12-07T10:22:01.998Z,74.90
2018-12-07T10:24:32.587Z,74.66
2018-12-07T10:27:08.249Z,74.50
2018-12-07T10:29:39.314Z,74.23
2018-12-07T10:32:09.918Z,74.59
2018-12-07T10:34:41.461Z,74.86
2018-12-07T10:37:12.036Z,74.86
2018-12-07T10:39:43.083Z,74.23
2018-12-07T10:42:13.671Z,74.52
2018-12-07T10:44:44.727Z,74.65
2018-12-07T10:47:15.751Z,74.50
2018-12-07T10:49:46.369Z,74.61
2018-12-07T10:52:16.937Z,73.96
2018-12-07T10:54:47.765Z,74.84
2018-12-07T10:57:18.794Z,74.02
2018-12-07T10:59:49.385Z,74.47
2018-12-07T11:02:25.394Z,74.27
2018-12-07T11:05:01.173Z,73.85
2018-12-07T11:07:36.888Z,74.18
2018-12-07T11:10:13.494Z,73.55
2018-12-07T11:13:50.982Z,74.09
2018-12-07T11:16:27.219Z,74.13
2018-12-07T11:19:02.995Z,73.92
2018-12-07T11:21:38.771Z,73.89
2018-12-07T11:24:14.601Z,74.71
2018-12-07T11:26:50.580Z,74.69
2018-12-07T11:29:26.211Z,74.28
2018-12-07T11:32:02.158Z,74.54
2018-12-07T11:34:38.610Z,74.54
2018-12-07T11:37:09.861Z,73.99
2018-12-07T11:39:40.442Z,74.08
2018-12-07T11:42:12.760Z,73.16
2018-12-07T11:44:45.354Z,73.16
2018-12-07T11:47:15.962Z,73.89
2018-12-07T11:49:46.583Z,73.15
2018-12-07T11:52:18.222Z,73.34
2018-12-07T11:54:48.810Z,72.50
2018-12-07T11:57:19.408Z,71.77
2018-12-07T11:59:49.995Z,71.76
2018-12-07T12:02:26.352Z,72.64
2018-12-07T12:04:53.422Z,72.92
2018-12-07T12:07:23.978Z,72.12
2018-12-07T12:09:54.583Z,72.53
2018-12-07T12:12:28.002Z,72.53
2018-12-07T12:14:58.706Z,72.56
2018-12-07T12:17:29.386Z,72.35
2018-12-07T12:20:00.007Z,72.07
2018-12-07T12:22:31.801Z,72.24
2018-12-07T12:25:03.658Z,72.13
2018-12-07T12:27:35.581Z,72.43
2018-12-07T12:30:08.066Z,72.49
2018-12-07T12:32:38.903Z,72.88
2018-12-07T12:35:10.019Z,72.53
2018-12-07T12:37:40.674Z,72.83
2018-12-07T12:40:11.221Z,72.51
2018-12-07T12:42:41.931Z,72.59
2018-12-07T12:45:12.515Z,72.62
2018-12-07T12:47:43.316Z,73.29
2018-12-07T12:50:20.309Z,73.13
2018-12-07T12:52:50.895Z,72.69
2018-12-07T12:55:21.545Z,72.74
2018-12-07T12:57:52.133Z,73.08
2018-12-07T13:00:22.794Z,72.91
2018-12-07T13:02:54.474Z,73.86
2018-12-07T13:05:25.078Z,72.64
2018-12-07T13:07:57.439Z,72.99
2018-12-07T13:10:28.214Z,73.69
2018-12-07T13:12:58.795Z,72.59
2018-12-07T13:15:29.484Z,73.52
2018-12-07T13:18:00.103Z,72.93
2018-12-07T13:20:30.831Z,73.28
2018-12-07T13:23:01.435Z,72.88
2018-12-07T13:25:32.070Z,73.32
2018-12-07T13:28:02.698Z,73.34
2018-12-07T13:30:33.375Z,73.28
2018-12-07T13:33:04.069Z,72.81
2018-12-07T13:35:34.683Z,72.92
2018-12-07T13:38:05.709Z,72.93
2018-12-07T13:40:36.416Z,73.27
2018-12-07T13:43:07.772Z,73.68
2018-12-07T13:45:38.591Z,74.74
2018-12-07T13:48:09.792Z,75.06
2018-12-07T13:50:42.565Z,74.53
2018-12-07T13:53:13.567Z,76.25
2018-12-07T13:55:44.586Z,76.01
2018-12-07T13:58:17.391Z,75.85
2018-12-07T14:00:49.224Z,75.27
2018-12-07T14:03:20.036Z,74.75
2018-12-07T14:05:50.962Z,75.54
2018-12-07T14:08:21.967Z,75.81
2018-12-07T14:10:53.023Z,75.19
2018-12-07T14:13:24.034Z,76.09
2018-12-07T14:15:54.903Z,76.12
2018-12-07T14:18:26.078Z,75.84
2018-12-07T14:20:57.015Z,75.75
2018-12-07T14:23:28.010Z,75.80
2018-12-07T14:25:58.898Z,76.14
2018-12-07T14:28:29.562Z,75.91
2018-12-07T14:31:00.485Z,76.21
2018-12-07T14:33:31.639Z,75.77
2018-12-07T14:36:02.487Z,75.82
2018-12-07T14:38:33.632Z,75.96
2018-12-07T14:41:04.655Z,76.02
2018-12-07T14:43:35.709Z,75.97
2018-12-07T14:46:06.739Z,75.93
2018-12-07T14:48:37.721Z,75.71
2018-12-07T14:51:08.654Z,75.50
2018-12-07T14:53:39.458Z,75.64
2018-12-07T14:56:10.397Z,75.91
2018-12-07T14:58:41.434Z,75.75
2018-12-07T15:01:12.462Z,75.39
2018-12-07T15:03:43.434Z,75.89
2018-12-07T15:06:14.454Z,75.24
2018-12-07T15:08:45.409Z,75.86
2018-12-07T15:11:16.640Z,75.77
2018-12-07T15:13:47.425Z,75.84
2018-12-07T15:16:18.439Z,75.34
2018-12-07T15:18:49.294Z,75.01
2018-12-07T15:21:20.689Z,75.72
2018-12-07T15:23:51.645Z,74.92
2018-12-07T15:26:22.744Z,74.37
2018-12-07T15:28:53.667Z,74.61
2018-12-07T15:31:24.592Z,74.86
2018-12-07T15:33:55.669Z,74.03
2018-12-07T15:36:26.748Z,73.94
2018-12-07T15:38:57.531Z,73.86
2018-12-07T15:41:28.863Z,73.84
2018-12-07T15:43:59.787Z,72.92
2018-12-07T15:46:31.489Z,72.75
2018-12-07T15:49:02.480Z,73.00
2018-12-07T15:51:33.456Z,72.87
2018-12-07T15:54:04.586Z,73.08
2018-12-07T15:56:36.138Z,71.91
2018-12-07T15:59:07.230Z,72.34
2018-12-07T16:01:38.789Z,72.67
2018-12-07T16:04:09.992Z,72.00
2018-12-07T16:06:40.927Z,71.55
2018-12-07T16:09:11.935Z,72.08
2018-12-07T16:11:42.786Z,71.90
2018-12-07T16:14:13.835Z,71.47
2018-12-07T16:16:44.725Z,71.51
2018-12-07T16:19:15.677Z,71.08
2018-12-07T16:21:46.913Z,71.42
2018-12-07T16:24:18.053Z,71.77
2018-12-07T16:26:49.059Z,71.42
2018-12-07T16:29:20.116Z,71.10
2018-12-07T16:31:51.101Z,71.32
2018-12-07T16:34:21.754Z,71.24
2018-12-07T16:36:52.905Z,71.06
2018-12-07T16:39:23.819Z,71.97
2018-12-07T16:41:54.834Z,71.05
2018-12-07T16:44:25.713Z,71.72
2018-12-07T16:46:56.546Z,71.48
2018-12-07T16:49:27.629Z,71.46
2018-12-07T16:51:58.827Z,71.59
2018-12-07T16:54:29.815Z,72.04
2018-12-07T16:57:00.745Z,71.46
2018-12-07T16:59:31.865Z,71.43
2018-12-07T17:02:03.034Z,71.60
2018-12-07T17:04:33.981Z,72.24
2018-12-07T17:07:04.945Z,71.15
2018-12-07T17:09:36.281Z,71.46
2018-12-07T17:12:07.162Z,71.15
2018-12-07T17:14:37.967Z,71.21
2018-12-07T17:17:08.654Z,71.28
2018-12-07T17:19:39.739Z,70.75
2018-12-07T17:22:10.798Z,71.54
2018-12-07T17:24:42.801Z,70.75
2018-12-07T17:27:13.591Z,70.20
2018-12-07T17:29:44.706Z,70.12
2018-12-07T17:32:15.863Z,70.34
2018-12-07T17:34:47.459Z,70.20
2018-12-07T17:37:18.795Z,70.66
2018-12-07T17:39:49.781Z,70.40
2018-12-07T17:42:29.278Z,70.39
2018-12-07T17:44:53.982Z,70.89
2018-12-07T17:47:25.155Z,70.69
2018-12-07T17:49:56.262Z,71.09
2018-12-07T17:52:27.832Z,70.87
2018-12-07T17:54:58.890Z,71.37
2018-12-07T17:57:29.914Z,70.29
2018-12-07T18:00:02.144Z,70.97
2018-12-07T18:02:34.315Z,70.46
2018-12-07T18:05:06.419Z,70.48
2018-12-07T18:07:37.480Z,70.79
2018-12-07T18:10:10.529Z,72.35
2018-12-07T18:12:41.370Z,72.61
2018-12-07T18:15:12.583Z,74.13
2018-12-07T18:17:44.842Z,74.40
2018-12-07T18:20:16.930Z,74.21
2018-12-07T18:22:47.855Z,74.59
2018-12-07T18:25:18.710Z,75.88
2018-12-07T18:27:49.610Z,76.18
2018-12-07T18:30:20.430Z,76.55
2018-12-07T18:32:51.185Z,76.71
2018-12-07T18:35:22.127Z,77.32
2018-12-07T18:37:53.108Z,77.33
2018-12-07T18:40:24.125Z,76.67
2018-12-07T18:42:55.415Z,76.20
2018-12-07T18:45:26.446Z,75.86
2018-12-07T18:47:57.676Z,76.12
2018-12-07T18:50:28.576Z,75.05
2018-12-07T18:52:59.665Z,75.84
2018-12-07T18:55:30.689Z,75.78
2018-12-07T18:58:01.695Z,74.90
2018-12-07T19:00:32.850Z,75.46
2018-12-07T19:03:04.065Z,75.28
2018-12-07T19:05:35.054Z,74.51
2018-12-07T19:08:06.013Z,75.38
2018-12-07T19:10:37.220Z,74.51
2018-12-07T19:13:08.239Z,74.58
2018-12-07T19:15:39.078Z,74.74
2018-12-07T19:18:10.097Z,75.39
2018-12-07T19:20:41.222Z,75.07
2018-12-07T19:23:12.357Z,74.90
2018-12-07T19:25:43.366Z,75.14
2018-12-07T19:28:14.550Z,75.10
2018-12-07T19:30:45.566Z,76.04
2018-12-07T19:33:16.426Z,76.04
2018-12-07T19:35:47.336Z,76.55
2018-12-07T19:38:18.315Z,76.37
2018-12-07T19:40:49.605Z,75.82
2018-12-07T19:43:20.740Z,75.94
2018-12-07T19:45:51.773Z,75.90
2018-12-07T19:48:22.649Z,76.08
2018-12-07T19:50:54.120Z,76.13
2018-12-07T19:53:24.929Z,76.44
2018-12-07T19:55:55.758Z,76.04
2018-12-07T19:58:26.905Z,76.17
2018-12-07T20:00:58.235Z,76.93
2018-12-07T20:03:29.668Z,76.63
2018-12-07T20:06:00.296Z,76.85
2018-12-07T20:08:31.284Z,77.29
2018-12-07T20:11:02.206Z,76.90
2018-12-07T20:13:32.931Z,77.65
2018-12-07T20:16:03.769Z,77.57
2018-12-07T20:18:35.781Z,77.74
2018-12-07T20:21:06.824Z,78.33
2018-12-07T20:23:37.850Z,80.05
2018-12-07T20:26:08.896Z,79.07
2018-12-07T20:28:39.871Z,79.20
2018-12-07T20:31:11.347Z,79.10
2018-12-07T20:33:42.437Z,78.17
2018-12-07T20:36:13.500Z,78.09
2018-12-07T20:38:44.326Z,77.72
2018-12-07T20:41:16.338Z,77.43
2018-12-07T20:43:47.226Z,79.02
2018-12-07T20:46:18.239Z,78.46
2018-12-07T20:48:49.413Z,78.31
2018-12-07T20:51:21.029Z,78.26
2018-12-07T20:53:52.110Z,77.95
2018-12-07T20:56:23.404Z,78.55
2018-12-07T20:58:54.459Z,78.59
2018-12-07T21:01:25.954Z,79.36
2018-12-07T21:05:15.379Z,78.72
2018-12-07T21:08:03.816Z,77.47
2018-12-07T21:11:47.989Z,77.82
2018-12-07T21:14:45.666Z,78.58
2018-12-07T21:17:26.237Z,78.08
2018-12-07T21:20:24.163Z,78.43
2018-12-07T21:22:56.462Z,78.28
2018-12-07T21:25:27.637Z,78.34
2018-12-07T21:27:58.732Z,78.59
2018-12-07T21:30:58.754Z,78.44
2018-12-07T21:35:03.751Z,78.29
2018-12-07T21:37:34.812Z,77.98
2018-12-07T21:40:27.767Z,78.00
2018-12-07T21:42:58.691Z,77.44
2018-12-07T21:45:29.740Z,77.18
2018-12-07T21:52:29.479Z,76.60
2018-12-07T21:55:00.553Z,77.18
2018-12-07T21:57:31.431Z,76.66
2018-12-07T22:00:02.559Z,76.68
2018-12-07T22:02:34.754Z,77.28
2018-12-07T22:05:06.711Z,77.04
2018-12-07T22:07:37.858Z,76.44
2018-12-07T22:10:09.488Z,76.17
2018-12-07T22:12:40.838Z,76.09
2018-12-07T22:15:11.720Z,76.13
2018-12-07T22:17:42.526Z,74.94
2018-12-07T22:20:13.669Z,74.83
2018-12-07T22:22:44.769Z,74.82
2018-12-07T22:25:16.382Z,74.90
2018-12-07T22:27:47.607Z,73.93
2018-12-07T22:30:18.779Z,74.15
2018-12-07T22:32:50.403Z,75.25
2018-12-07T22:35:21.170Z,74.79
2018-12-07T22:37:52.348Z,74.20
2018-12-07T22:40:23.303Z,75.37
2018-12-07T22:42:54.512Z,75.14
2018-12-07T22:45:25.407Z,75.05
2018-12-07T22:47:56.315Z,75.54
2018-12-07T22:50:27.270Z,74.64
2018-12-07T22:52:57.915Z,74.55
2018-12-07T22:55:28.617Z,74.90
2018-12-07T22:57:59.413Z,74.21
2018-12-07T23:00:30.823Z,74.68
2018-12-07T23:03:03.185Z,74.76
2018-12-07T23:05:33.770Z,73.69
2018-12-07T23:08:04.850Z,73.81
2018-12-07T23:10:35.519Z,73.82
2018-12-07T23:13:06.143Z,73.45
2018-12-07T23:15:36.815Z,73.88
2018-12-07T23:18:07.693Z,74.08
2018-12-07T23:20:39.339Z,72.87
2018-12-07T23:23:09.927Z,73.14
2018-12-07T23:25:41.108Z,73.59
2018-12-07T23:28:12.161Z,73.31
2018-12-07T23:30:43.102Z,73.60
2018-12-07T23:33:13.738Z,73.42
2018-12-07T23:35:44.354Z,74.01
2018-12-07T23:38:15.109Z,74.87
2018-12-07T23:40:46.310Z,74.63
2018-12-07T23:43:17.383Z,75.73
2018-12-07T23:45:48.518Z,76.06
2018-12-07T23:48:19.207Z,76.97
2018-12-07T23:50:49.873Z,76.94
2018-12-07T23:53:20.466Z,77.84
2018-12-07T23:55:51.211Z,76.83
2018-12-07T23:58:21.851Z,78.08
